Time;durP1;ratioP1;P1;durP2;ratioP2;P2;SDS_P1;SDS_P2;PMS_P1;PMS_P2;Temp;Humidity;BMP_temperature;BMP_pressure;BME280_temperature;BME280_humidity;BME280_pressure;Samples;Min_cycle;Max_cycle;Signal;HPM_P1;HPM_P2
2023/04/25 00:01:37;;;;;;;;;6.00;5.33;;;;;16.31;52.10;100488.22;146624;571;46010;-85
2023/04/25 00:04:48;;;;;;;;;6.67;5.33;;;;;16.35;52.42;100495.34;146619;573;46012;-81
2023/04/25 00:07:42;;;;;;;;;5.00;4.00;;;;;16.40;51.85;100496.31;146615;638;46020;-81
2023/04/25 00:10:35;;;;;;;;;6.50;5.25;;;;;16.42;52.72;100490.22;146618;564;46012;-83
2023/04/25 00:13:29;;;;;;;;;8.00;6.00;;;;;16.43;52.26;100490.25;146622;602;46010;-82
2023/04/25 00:16:24;;;;;;;;;5.00;4.00;;;;;16.45;51.32;100492.91;146617;566;46025;-83
2023/04/25 00:19:16;;;;;;;;;6.67;3.33;;;;;16.46;50.78;100505.16;146620;571;46021;-83
2023/04/25 00:22:11;;;;;;;;;5.00;4.33;;;;;16.48;50.52;100503.44;146611;565;47016;-82
2023/04/25 00:25:10;;;;;;;;;5.67;4.33;;;;;16.47;49.87;100507.78;146622;611;47010;-81
2023/04/25 00:28:04;;;;;;;;;3.00;3.00;;;;;16.50;50.21;100501.75;146619;670;46012;-89
2023/04/25 00:30:56;;;;;;;;;4.00;4.00;;;;;16.54;49.71;100500.97;146621;633;46012;-76
2023/04/25 00:33:53;;;;;;;;;5.67;5.00;;;;;16.60;50.16;100502.03;146617;570;47012;-77
2023/04/25 00:37:07;;;;;;;;;;;;;;;;;;;;;
2023/04/25 00:40:03;;;;;;;;;5.50;4.00;;;;;16.71;50.56;100499.62;146612;611;46943;-78
2023/04/25 00:43:11;;;;;;;;;4.33;4.00;;;;;16.70;49.50;100487.41;146622;635;46010;-79
2023/04/25 00:46:38;;;;;;;;;4.67;4.67;;;;;16.67;50.07;100482.09;146622;569;45018;-79
2023/04/25 00:49:33;;;;;;;;;3.33;3.33;;;;;16.62;48.67;100484.59;146613;590;47010;-78
2023/04/25 00:52:43;;;;;;;;;5.00;5.00;;;;;16.06;48.78;100389.09;146620;569;46014;-83
2023/04/25 00:55:40;;;;;;;;;5.67;5.67;;;;;16.53;49.56;100479.16;146621;592;46010;-82
2023/04/25 00:58:37;;;;;;;;;5.00;4.00;;;;;16.56;49.92;100489.69;146621;619;46016;-82
2023/04/25 01:01:35;;;;;;;;;5.33;4.00;;;;;16.53;49.79;100484.37;146623;583;46010;-83
2023/04/25 01:04:27;;;;;;;;;5.67;3.67;;;;;16.49;49.42;100477.31;146620;660;46016;-85
2023/04/25 01:07:42;;;;;;;;;6.67;4.33;;;;;16.34;51.44;100461.25;146620;577;46010;-82
2023/04/25 01:10:47;;;;;;;;;6.00;5.00;;;;;16.44;50.40;100485.91;146620;628;46016;-84
2023/04/25 01:13:45;;;;;;;;;6.00;4.75;;;;;16.12;49.75;100442.44;146622;700;46032;-84
2023/04/25 01:16:37;;;;;;;;;5.25;4.75;;;;;16.33;50.34;100477.81;146619;566;46017;-87
2023/04/25 01:19:43;;;;;;;;;5.67;5.00;;;;;16.29;51.20;100478.56;146622;624;46020;-86
2023/04/25 01:22:43;;;;;;;;;5.00;5.00;;;;;16.28;50.74;100475.06;146618;569;46916;-88
2023/04/25 01:25:55;;;;;;;;;5.00;4.00;;;;;16.28;51.15;100463.72;146636;576;46010;-88
2023/04/25 01:28:50;;;;;;;;;3.67;3.67;;;;;16.22;50.43;100458.34;146630;571;46012;-90
2023/04/25 01:31:43;;;;;;;;;3.00;3.00;;;;;16.14;50.89;100448.59;146638;612;45020;-85
2023/04/25 01:34:34;;;;;;;;;5.33;4.00;;;;;16.07;51.75;100448.38;146635;582;45916;-89
2023/04/25 01:37:35;;;;;;;;;6.33;5.33;;;;;16.00;51.12;100444.75;146635;607;45020;-89
2023/04/25 01:40:31;;;;;;;;;5.33;5.33;;;;;15.98;51.52;100448.16;146633;575;45016;-88
2023/04/25 01:43:27;;;;;;;;;5.33;4.67;;;;;15.96;51.44;100445.53;146638;565;45010;-88
2023/04/25 01:46:19;;;;;;;;;5.00;5.00;;;;;15.93;51.47;100440.22;146636;586;45012;-90
2023/04/25 01:49:13;;;;;;;;;4.33;4.00;;;;;15.91;51.39;100437.53;146637;573;45010;-87
2023/04/25 01:52:11;;;;;;;;;6.00;4.33;;;;;15.89;52.69;100439.25;146636;613;45012;-86
2023/04/25 01:55:14;;;;;;;;;6.00;5.00;;;;;15.90;53.33;100450.59;146638;569;45021;-86
2023/04/25 01:58:26;;;;;;;;;5.33;5.33;;;;;15.27;53.21;100333.97;146636;628;45012;-87
2023/04/25 02:01:28;;;;;;;;;4.75;4.75;;;;;15.89;52.85;100443.63;146637;620;45021;-86
2023/04/25 02:04:23;;;;;;;;;6.50;5.75;;;;;15.87;52.00;100435.72;146635;577;45016;-85
2023/04/25 02:07:33;;;;;;;;;4.25;4.25;;;;;15.89;52.38;100446.22;146635;626;45020;-84
2023/04/25 02:10:28;;;;;;;;;4.25;4.25;;;;;15.78;52.51;100417.19;146635;567;45917;-88
2023/04/25 02:13:20;;;;;;;;;3.33;3.33;;;;;15.92;52.65;100435.84;146637;611;46020;-88
2023/04/25 02:16:24;;;;;;;;;;;;;;;;;;;;;
2023/04/25 02:19:20;;;;;;;;;5.00;5.00;;;;;15.85;52.31;100420.81;146635;618;45020;-92
2023/04/25 02:22:18;;;;;;;;;5.00;4.00;;;;;15.81;52.53;100424.22;146636;666;45012;-89
2023/04/25 02:25:25;;;;;;;;;4.67;4.00;;;;;15.79;53.15;100424.16;146625;576;46917;-89
2023/04/25 02:28:17;;;;;;;;;6.50;4.50;;;;;15.76;53.01;100429.31;146632;662;46012;-90
2023/04/25 02:31:14;;;;;;;;;7.33;4.67;;;;;15.70;53.47;100419.63;146638;616;45011;-89
2023/04/25 02:34:19;;;;;;;;;3.00;3.00;;;;;15.67;54.47;100427.37;146633;576;45039;-85
2023/04/25 02:37:12;;;;;;;;;5.67;4.67;;;;;15.65;54.00;100425.53;146634;572;45020;-84
2023/04/25 02:40:07;;;;;;;;;6.33;5.00;;;;;15.60;53.53;100417.56;146635;566;45924;-84
2023/04/25 02:43:17;;;;;;;;;7.00;4.00;;;;;15.62;54.96;100428.94;146639;571;45010;-84
2023/04/25 02:46:12;;;;;;;;;8.00;6.00;;;;;15.59;54.34;100412.31;146633;641;45017;-85
2023/04/25 02:49:15;;;;;;;;;5.00;5.00;;;;;15.57;54.19;100424.44;146638;660;45010;-87
2023/04/25 02:52:07;;;;;;;;;7.00;5.67;;;;;15.50;54.68;100420.78;146632;684;45016;-86
2023/04/25 02:55:03;;;;;;;;;4.00;4.00;;;;;15.50;54.49;100420.78;146637;663;45010;-84
2023/04/25 02:58:12;;;;;;;;;6.00;6.00;;;;;15.46;53.95;100414.59;146634;686;45016;-85
2023/04/25 03:01:24;;;;;;;;;5.00;4.25;;;;;15.35;54.03;100420.37;146632;570;46021;-85
2023/04/25 03:04:23;;;;;;;;;4.25;4.25;;;;;15.27;53.14;100417.56;146635;678;45014;-82
2023/04/25 03:07:19;;;;;;;;;6.00;3.67;;;;;15.29;53.28;100415.84;146632;613;45020;-84
2023/04/25 03:10:20;;;;;;;;;6.00;5.50;;;;;15.33;53.13;100415.12;146635;603;45012;-89
2023/04/25 03:13:18;;;;;;;;;7.00;6.00;;;;;15.42;52.81;100424.91;146636;593;45020;-84
2023/04/25 03:16:13;;;;;;;;;5.25;5.25;;;;;15.48;51.89;100420.75;146630;665;46014;-84
2023/04/25 03:19:06;;;;;;;;;6.67;6.00;;;;;15.61;53.08;100421.06;146637;640;45020;-84
2023/04/25 03:21:58;;;;;;;;;5.00;5.00;;;;;15.65;53.82;100425.53;146635;569;45016;-82
2023/04/25 03:24:50;;;;;;;;;7.50;6.75;;;;;15.66;55.03;100429.91;146624;569;46026;-81
2023/04/25 03:27:43;;;;;;;;;6.33;5.33;;;;;15.66;55.05;100424.69;146620;563;46016;-82
2023/04/25 03:30:38;;;;;;;;;7.67;5.00;;;;;15.66;54.75;100427.28;146620;615;46020;-85
2023/04/25 03:33:44;;;;;;;;;6.00;6.00;;;;;15.63;55.11;100417.63;146617;569;46016;-84
2023/04/25 03:36:46;;;;;;;;;6.33;5.67;;;;;15.61;55.46;100421.97;146616;658;46020;-86
2023/04/25 03:39:38;;;;;;;;;8.75;8.75;;;;;15.58;55.95;100411.41;146618;663;46013;-80
2023/04/25 03:42:33;;;;;;;;;7.00;7.00;;;;;15.57;55.78;100411.38;146621;573;46020;-81
2023/04/25 03:45:53;;;;;;;;;10.67;7.33;;;;;15.52;55.87;100415.63;146618;601;47013;-81
2023/04/25 03:48:54;;;;;;;;;8.25;7.00;;;;;15.47;57.36;100413.75;146621;632;46020;-82
2023/04/25 03:51:49;;;;;;;;;7.00;7.00;;;;;15.45;56.67;100411.91;146616;604;46015;-81
2023/04/25 03:54:44;;;;;;;;;7.67;7.00;;;;;15.46;57.10;100424.16;146620;649;48010;-82
2023/04/25 03:57:58;;;;;;;;;10.50;7.50;;;;;15.40;57.03;100405.72;146617;569;46918;-86
2023/04/25 04:01:03;;;;;;;;;6.33;6.00;;;;;15.25;55.63;100409.66;146623;565;46011;-87
2023/04/25 04:03:57;;;;;;;;;9.00;7.00;;;;;15.20;56.70;100413.00;146620;604;46016;-87
2023/04/25 04:06:55;;;;;;;;;7.25;7.25;;;;;15.21;56.62;100404.34;146619;729;46013;-84
2023/04/25 04:09:47;;;;;;;;;8.00;7.33;;;;;15.10;56.83;100390.09;146620;583;46016;-85
2023/04/25 04:12:40;;;;;;;;;8.00;8.00;;;;;15.23;57.00;100418.31;146622;711;46010;-86
2023/04/25 04:15:41;;;;;;;;;12.50;9.25;;;;;15.26;56.99;100415.78;146616;602;47012;-86
2023/04/25 04:18:42;;;;;;;;;7.75;7.75;;;;;15.23;57.21;100421.81;146621;661;46020;-85
2023/04/25 04:21:33;;;;;;;;;8.75;6.25;;;;;15.25;57.58;100422.72;146621;641;46034;-85
2023/04/25 04:24:30;;;;;;;;;8.00;7.25;;;;;15.30;56.99;100412.41;146620;569;46020;-85
2023/04/25 04:27:24;;;;;;;;;10.25;9.25;;;;;15.35;57.33;100417.75;146620;614;46012;-87
2023/04/25 04:30:16;;;;;;;;;10.25;9.25;;;;;15.46;58.46;100418.94;146622;715;46011;-90
2023/04/25 04:33:11;;;;;;;;;11.75;9.75;;;;;15.65;57.58;100420.31;146620;563;46014;-87
2023/04/25 04:36:15;;;;;;;;;11.00;10.00;;;;;15.82;57.14;100428.59;146611;584;47010;-82
2023/04/25 04:39:26;;;;;;;;;7.50;6.25;;;;;16.07;57.00;100428.34;146611;645;46016;-80
2023/04/25 04:42:27;;;;;;;;;11.00;7.00;;;;;16.28;56.65;100429.72;146622;660;47010;-84
2023/04/25 04:45:20;;;;;;;;;13.00;8.00;;;;;16.48;56.49;100427.53;146617;673;46014;-84
2023/04/25 04:48:16;;;;;;;;;9.75;8.00;;;;;16.72;56.95;100427.22;146621;653;46020;-84
2023/04/25 04:51:09;;;;;;;;;9.75;8.50;;;;;16.99;56.78;100434.81;146618;688;46916;-85
2023/04/25 04:54:04;;;;;;;;;10.00;9.00;;;;;17.22;54.50;100423.03;146621;709;46010;-85
2023/04/25 04:57:03;;;;;;;;;11.00;9.00;;;;;17.39;53.91;100428.62;146618;595;46012;-88
2023/04/25 05:00:10;;;;;;;;;11.25;9.75;;;;;17.53;53.15;100427.13;146622;643;46021;-87
2023/04/25 05:03:16;;;;;;;;;6.25;6.25;;;;;17.69;53.19;100419.53;146617;643;46016;-88
2023/04/25 05:06:13;;;;;;;;;4.00;4.00;;;;;17.84;51.04;100425.06;146615;617;46020;-82
2023/04/25 05:09:19;;;;;;;;;5.67;4.33;;;;;18.03;50.82;100428.00;146615;570;46016;-82
2023/04/25 05:12:30;;;;;;;;;8.50;8.25;;;;;18.22;50.83;100427.41;146621;683;46010;-81
2023/04/25 05:15:39;;;;;;;;;8.00;7.25;;;;;18.45;52.67;100419.91;146617;585;46017;-82
2023/04/25 05:18:36;;;;;;;;;14.25;12.25;;;;;18.67;51.11;100419.34;146618;563;46020;-81
2023/04/25 05:21:34;;;;;;;;;11.50;10.25;;;;;18.89;53.20;100415.28;146612;659;46013;-84
2023/04/25 05:24:30;;;;;;;;;6.00;6.00;;;;;19.15;50.57;100414.69;146616;636;46010;-84
2023/04/25 05:27:26;;;;;;;;;3.00;3.00;;;;;19.35;48.96;100422.81;146620;612;46012;-82
2023/04/25 05:30:38;;;;;;;;;4.33;4.00;;;;;19.38;47.78;100414.97;146619;651;46020;-83
2023/04/25 05:33:36;;;;;;;;;4.00;4.00;;;;;19.35;48.73;100418.44;146617;579;46014;-80
2023/04/25 05:36:36;;;;;;;;;5.33;4.00;;;;;19.30;47.24;100420.13;146614;659;46020;-81
2023/04/25 05:39:28;;;;;;;;;5.33;4.00;;;;;19.24;49.50;100413.94;146620;580;47012;-81
2023/04/25 05:42:21;;;;;;;;;7.33;4.67;;;;;19.24;48.40;100413.94;146623;563;46010;-82
2023/04/25 05:45:17;;;;;;;;;8.33;5.67;;;;;19.29;50.71;100414.88;146622;635;46012;-83
2023/04/25 05:48:13;;;;;;;;;7.33;6.33;;;;;19.45;51.08;100413.28;146623;620;46010;-91
2023/04/25 05:51:16;;;;;;;;;9.33;7.67;;;;;19.72;49.93;100410.94;146622;567;46012;-89
2023/04/25 05:54:11;;;;;;;;;10.33;7.00;;;;;19.87;50.07;100409.28;146625;608;46020;-77
2023/04/25 05:57:05;;;;;;;;;4.67;4.67;;;;;19.89;48.13;100416.34;146616;590;46016;-84
2023/04/25 06:00:29;;;;;;;;;7.00;7.00;;;;;19.84;47.90;100408.44;146623;654;46021;-84
2023/04/25 06:03:34;;;;;;;;;6.00;6.00;;;;;19.91;48.27;100413.75;146620;595;46012;-86
2023/04/25 06:06:27;;;;;;;;;6.00;5.00;;;;;20.12;48.24;100405.09;146617;564;46020;-85
2023/04/25 06:09:31;;;;;;;;;5.00;5.00;;;;;20.41;48.12;100413.22;146618;579;46012;-88
2023/04/25 06:12:31;;;;;;;;;5.33;4.00;;;;;20.61;47.05;100416.00;146623;618;46010;-87
2023/04/25 06:15:23;;;;;;;;;6.67;5.00;;;;;20.81;46.71;100400.25;146621;583;46012;-87
2023/04/25 06:18:17;;;;;;;;;8.33;5.67;;;;;20.88;46.24;100408.22;146624;580;46010;-86
2023/04/25 06:21:09;;;;;;;;;5.67;4.67;;;;;20.85;46.57;100400.31;146621;579;45037;-85
2023/04/25 06:24:12;;;;;;;;;7.67;4.33;;;;;19.66;46.83;100207.44;146620;573;46020;-86
2023/04/25 06:27:07;;;;;;;;;6.33;5.00;;;;;20.72;45.69;100399.37;146621;569;46016;-86
2023/04/25 06:29:58;;;;;;;;;4.33;3.67;;;;;20.88;44.87;100399.44;146624;615;46010;-84
2023/04/25 06:33:09;;;;;;;;;5.00;4.00;;;;;21.02;46.20;100392.44;146620;613;46012;-84
2023/04/25 06:36:04;;;;;;;;;4.00;4.00;;;;;21.23;44.14;100397.78;146620;579;46020;-84
2023/04/25 06:38:56;;;;;;;;;4.67;3.67;;;;;21.44;44.83;100393.47;146620;590;46035;-85
2023/04/25 06:42:00;;;;;;;;;3.67;3.67;;;;;21.70;45.25;100392.63;146619;600;46020;-86
2023/04/25 06:44:56;;;;;;;;;6.00;5.33;;;;;21.90;44.39;100378.56;146619;605;45040;-85
2023/04/25 06:47:51;;;;;;;;;5.00;5.00;;;;;22.16;42.52;100387.31;146623;615;46029;-85
2023/04/25 06:50:48;;;;;;;;;5.67;4.67;;;;;22.35;43.23;100381.16;146620;574;46016;-85
2023/04/25 06:53:52;;;;;;;;;7.67;5.33;;;;;22.53;42.35;100380.22;146623;569;46010;-84
2023/04/25 06:56:57;;;;;;;;;;;;;;;;;;;;;
2023/04/25 06:59:53;;;;;;;;;5.67;5.00;;;;;22.91;41.53;100382.72;146622;594;46020;-86
2023/04/25 07:02:48;;;;;;;;;7.67;6.00;;;;;23.05;41.99;100383.56;146619;616;46016;-86
2023/04/25 07:05:43;;;;;;;;;4.00;3.33;;;;;23.23;42.13;100377.28;146619;591;46021;-87
2023/04/25 07:08:39;;;;;;;;;7.33;5.00;;;;;23.37;42.38;100366.63;146620;620;46014;-86
2023/04/25 07:11:43;;;;;;;;;6.33;5.33;;;;;23.54;40.18;100373.56;146616;604;46020;-85
2023/04/25 07:14:37;;;;;;;;;6.00;5.00;;;;;23.62;40.38;100369.09;146617;615;47013;-84
2023/04/25 07:17:32;;;;;;;;;7.00;6.00;;;;;23.67;41.13;100359.31;146623;569;46010;-87
2023/04/25 07:20:27;;;;;;;;;8.33;6.00;;;;;23.78;40.05;100357.50;146617;597;47919;-85
2023/04/25 07:23:22;;;;;;;;;7.00;6.33;;;;;23.93;41.17;100364.44;146622;575;46020;-83
2023/04/25 07:26:24;;;;;;;;;0.00;0.00;;;;;24.01;38.94;100348.47;146620;645;46016;-84
2023/04/25 07:29:31;;;;;;;;;10.00;9.00;;;;;24.03;41.30;100357.28;146623;571;46021;-87
2023/04/25 07:32:26;;;;;;;;;5.50;4.00;;;;;24.09;40.01;100351.94;146619;606;46918;-88
2023/04/25 07:35:21;;;;;;;;;7.00;6.00;;;;;24.17;40.22;100353.62;146618;570;46021;-85
2023/04/25 07:38:23;;;;;;;;;7.67;6.00;;;;;24.26;40.49;100347.31;146618;572;46012;-86
2023/04/25 07:41:22;;;;;;;;;8.00;6.00;;;;;24.35;42.33;100355.16;146623;570;46020;-85
2023/04/25 07:44:16;;;;;;;;;7.00;4.67;;;;;24.49;40.23;100343.59;146619;650;46014;-85
2023/04/25 07:47:13;;;;;;;;;5.00;4.00;;;;;24.61;38.31;100340.75;146621;566;46020;-88
2023/04/25 07:50:13;;;;;;;;;6.00;6.00;;;;;24.70;39.48;100345.94;146619;578;46013;-85
2023/04/25 07:53:11;;;;;;;;;4.00;4.00;;;;;24.76;39.92;100343.22;146622;599;46031;-87
2023/04/25 07:56:06;;;;;;;;;3.33;3.33;;;;;24.88;39.26;100348.34;146619;604;46012;-87
2023/04/25 07:59:01;;;;;;;;;4.33;4.33;;;;;25.09;39.19;100336.59;146621;612;46010;-86
2023/04/25 08:02:00;;;;;;;;;5.00;5.00;;;;;25.12;37.99;100333.00;146619;583;46012;-85
2023/04/25 08:04:54;;;;;;;;;4.67;4.00;;;;;25.00;38.83;100323.44;146619;569;46021;-85
2023/04/25 08:08:09;;;;;;;;;;;;;;;;;;;;;
2023/04/25 08:11:06;;;;;;;;;2.67;2.67;;;;;25.14;36.27;100320.66;146622;593;46010;-86
2023/04/25 08:14:07;;;;;;;;;5.00;4.00;;;;;25.09;35.45;100322.44;146618;581;46016;-87
2023/04/25 08:17:14;;;;;;;;;4.00;3.00;;;;;24.92;34.75;100321.78;146620;598;46010;-83
2023/04/25 08:20:13;;;;;;;;;3.00;3.00;;;;;24.81;35.85;100333.44;146620;574;46012;-86
2023/04/25 08:23:10;;;;;;;;;4.33;4.33;;;;;24.86;35.80;100322.78;146618;650;46030;-84
2023/04/25 08:26:05;;;;;;;;;3.67;2.33;;;;;24.95;36.68;100325.28;146617;609;46017;-87
2023/04/25 08:29:00;;;;;;;;;3.67;2.33;;;;;24.98;36.98;100330.53;146623;631;45026;-87
2023/04/25 08:32:01;;;;;;;;;3.00;3.00;;;;;24.99;36.06;100331.44;146617;569;46012;-83
2023/04/25 08:34:55;;;;;;;;;5.00;4.00;;;;;24.79;37.38;100351.12;146620;579;46041;-86
2023/04/25 08:37:48;;;;;;;;;6.00;5.33;;;;;24.64;38.62;100349.56;146617;611;46016;-85
2023/04/25 08:41:10;;;;;;;;;4.33;4.00;;;;;24.49;39.05;100357.72;146622;599;46030;-84
2023/04/25 08:44:07;;;;;;;;;4.00;4.00;;;;;24.18;41.60;100351.84;146618;599;46017;-83
2023/04/25 08:47:17;;;;;;;;;3.67;3.67;;;;;23.86;42.28;100347.75;146621;579;46020;-83
2023/04/25 08:50:19;;;;;;;;;6.33;5.33;;;;;23.74;40.95;100355.78;146621;656;46034;-86
2023/04/25 08:53:19;;;;;;;;;6.67;4.67;;;;;23.62;41.21;100353.22;146622;592;46010;-85
2023/04/25 08:56:34;;;;;;;;;6.33;6.33;;;;;23.40;42.15;100357.78;146620;610;46012;-83
2023/04/25 08:59:31;;;;;;;;;5.00;5.00;;;;;23.11;43.24;100364.12;146623;579;46020;-86
2023/04/25 09:02:36;;;;;;;;;5.67;4.67;;;;;22.90;43.21;100357.16;146618;655;46016;-85
2023/04/25 09:05:45;;;;;;;;;8.50;5.75;;;;;22.85;45.55;100355.44;146619;569;46011;-83
2023/04/25 09:08:43;;;;;;;;;3.67;3.67;;;;;22.86;45.37;100362.47;146619;563;47012;-85
2023/04/25 09:11:55;;;;;;;;;4.67;4.67;;;;;22.96;45.88;100364.19;146625;596;46020;-84
2023/04/25 09:15:17;;;;;;;;;;;;;;;;;;;;;
2023/04/25 09:18:56;;;;;;;;;;;;;;;;;;;;;
2023/04/25 09:21:53;;;;;;;;;9.00;5.00;;;;;24.01;40.62;100354.63;146619;589;46034;-83
2023/04/25 09:24:51;;;;;;;;;4.00;3.00;;;;;24.00;42.13;100346.72;146623;576;46020;-76
2023/04/25 09:27:59;;;;;;;;;4.00;3.00;;;;;24.18;42.19;100346.53;146620;632;46016;-86
2023/04/25 09:30:51;;;;;;;;;5.00;5.00;;;;;24.41;40.65;100349.81;146623;566;46010;-82
2023/04/25 09:33:52;;;;;;;;;5.00;4.00;;;;;24.54;39.16;100337.31;146618;612;47011;-84
2023/04/25 09:36:59;;;;;;;;;2.00;2.00;;;;;24.68;34.29;100339.81;146621;613;46020;-85
2023/04/25 09:40:05;;;;;;;;;2.00;2.00;;;;;24.86;37.92;100336.91;146617;625;46038;-88
2023/04/25 09:43:03;;;;;;;;;1.67;1.00;;;;;25.07;32.51;100322.44;146624;643;46012;-86
2023/04/25 09:46:07;;;;;;;;;2.00;1.33;;;;;25.28;33.66;100323.94;146622;682;46012;-84
2023/04/25 09:49:11;;;;;;;;;2.33;1.67;;;;;25.49;33.15;100321.87;146623;573;46020;-84
2023/04/25 09:52:03;;;;;;;;;3.00;2.00;;;;;25.65;33.56;100315.37;146621;672;46016;-86
2023/04/25 09:55:14;;;;;;;;;3.33;2.67;;;;;24.86;33.22;100153.94;146623;585;46010;-83
2023/04/25 09:58:20;;;;;;;;;2.00;1.67;;;;;25.97;33.32;100312.19;146610;751;47919;-86
2023/04/25 10:01:28;;;;;;;;;1.00;1.00;;;;;26.10;31.53;100318.13;146622;587;47010;-85
2023/04/25 10:04:43;;;;;;;;;3.00;2.00;;;;;26.13;33.69;100315.41;146618;573;46037;-84
2023/04/25 10:07:40;;;;;;;;;4.33;3.00;;;;;26.31;32.67;100311.53;146614;573;46020;-82
2023/04/25 10:10:50;;;;;;;;;4.33;3.00;;;;;26.19;33.11;100314.44;146617;611;46016;-84
2023/04/25 10:13:49;;;;;;;;;3.67;2.67;;;;;26.00;33.31;100305.94;146622;563;47010;-83
2023/04/25 10:16:46;;;;;;;;;2.00;2.00;;;;;26.06;33.95;100302.28;146619;581;46034;-85
2023/04/25 10:19:39;;;;;;;;;2.00;2.00;;;;;26.15;32.86;100297.69;146624;592;46011;-85
2023/04/25 10:22:48;;;;;;;;;1.00;1.00;;;;;25.92;34.40;100295.47;146618;592;46016;-88
2023/04/25 10:25:47;;;;;;;;;1.67;1.33;;;;;25.69;34.34;100303.81;146634;608;46020;-86
2023/04/25 10:29:08;;;;;;;;;1.67;1.33;;;;;25.40;34.49;100300.78;146634;569;45016;-84
2023/04/25 10:32:05;;;;;;;;;3.33;2.00;;;;;25.08;34.34;100297.69;146637;579;45010;-84
2023/04/25 10:34:58;;;;;;;;;2.00;2.00;;;;;25.01;35.22;100303.97;146637;588;45016;-85
2023/04/25 10:38:18;;;;;;;;;2.67;2.33;;;;;24.47;38.20;100162.50;146637;647;45020;-85
2023/04/25 10:41:33;;;;;;;;;;;;;;;;;;;;;
2023/04/25 10:44:37;;;;;;;;;2.33;1.67;;;;;25.49;36.60;100282.91;146639;583;45010;-83
2023/04/25 10:48:00;;;;;;;;;1.00;1.00;;;;;25.50;35.81;100276.69;146634;627;45017;-85
2023/04/25 10:51:21;;;;;;;;;3.00;2.00;;;;;25.75;34.57;100277.13;146634;603;46012;-86
2023/04/25 10:54:22;;;;;;;;;2.00;2.00;;;;;25.80;33.80;100274.41;146634;594;45023;-86
2023/04/25 10:58:00;;;;;;;;;;;;;;;;;;;;;
2023/04/25 11:01:05;;;;;;;;;2.00;2.00;;;;;26.16;32.96;100262.22;146632;697;45016;-84
2023/04/25 11:04:06;;;;;;;;;2.00;2.00;;;;;26.26;33.12;100254.94;146634;620;46021;-84
2023/04/25 11:07:51;;;;;;;;;2.00;2.00;;;;;25.82;33.44;100170.81;146636;605;45016;-84
2023/04/25 11:10:52;;;;;;;;;1.00;0.67;;;;;26.26;30.30;100252.25;146633;628;45021;-87
2023/04/25 11:13:45;;;;;;;;;0.00;0.00;;;;;26.24;30.94;100254.09;146634;617;45016;-85
2023/04/25 11:16:43;;;;;;;;;0.67;0.67;;;;;26.23;29.63;100247.91;146636;570;45020;-83
2023/04/25 11:19:35;;;;;;;;;0.67;0.33;;;;;26.18;30.99;100241.81;146635;696;45017;-85
2023/04/25 11:22:44;;;;;;;;;1.33;1.33;;;;;26.00;30.87;100232.41;146636;563;45020;-85
2023/04/25 11:26:00;;;;;;;;;0.67;0.67;;;;;25.90;31.44;100225.53;146622;638;46013;-81
2023/04/25 11:29:00;;;;;;;;;1.33;1.33;;;;;25.90;30.87;100216.72;146621;616;46010;-85
2023/04/25 11:31:57;;;;;;;;;1.00;1.00;;;;;25.98;31.70;100218.31;146615;583;46016;-84
2023/04/25 11:35:05;;;;;;;;;1.00;1.00;;;;;26.03;32.14;100210.25;146621;616;46020;-87
2023/04/25 11:38:03;;;;;;;;;3.00;1.00;;;;;25.95;30.76;100206.84;146617;671;46016;-84
2023/04/25 11:41:01;;;;;;;;;3.33;2.00;;;;;25.87;32.60;100204.38;146620;671;46021;-86
2023/04/25 11:43:59;;;;;;;;;1.00;1.00;;;;;25.89;33.75;100194.59;146616;576;46016;-83
2023/04/25 11:46:56;;;;;;;;;0.00;0.00;;;;;25.97;29.64;100181.12;146618;615;47020;-84
2023/04/25 11:50:00;;;;;;;;;;;;;;;;;;;;;
2023/04/25 11:53:00;;;;;;;;;1.00;1.00;;;;;25.92;33.75;100165.31;146624;692;46010;-83
2023/04/25 11:56:01;;;;;;;;;2.00;1.00;;;;;26.05;32.64;100163.28;146617;597;46017;-84
2023/04/25 11:59:20;;;;;;;;;2.00;1.67;;;;;25.51;32.28;100076.72;146622;576;46012;-83
2023/04/25 12:02:30;;;;;;;;;1.00;0.00;;;;;25.85;31.59;100160.13;146616;598;48012;-86
2023/04/25 12:05:33;;;;;;;;;2.00;2.00;;;;;25.71;31.06;100163.06;146622;654;46010;-85
2023/04/25 12:08:31;;;;;;;;;0.67;0.67;;;;;25.57;29.93;100158.00;146621;587;46014;-84
2023/04/25 12:11:27;;;;;;;;;1.33;1.00;;;;;25.45;31.34;100161.78;146613;647;46010;-87
2023/04/25 12:14:31;;;;;;;;;2.67;1.00;;;;;25.35;34.79;100152.22;146618;595;46916;-86
2023/04/25 12:17:29;;;;;;;;;1.33;1.00;;;;;25.25;31.04;100148.00;146622;645;46010;-85
2023/04/25 12:20:43;;;;;;;;;2.00;2.00;;;;;25.15;30.75;100149.94;146619;584;46016;-89
2023/04/25 12:24:12;;;;;;;;;1.00;1.00;;;;;24.08;33.61;99971.41;146623;606;46010;-86
2023/04/25 12:27:13;;;;;;;;;1.00;1.00;;;;;24.46;31.29;100052.09;146638;565;45016;-85
2023/04/25 12:30:13;;;;;;;;;1.33;0.67;;;;;24.87;31.89;100137.12;146640;634;45012;-83
2023/04/25 12:33:14;;;;;;;;;2.00;2.00;;;;;24.83;31.16;100129.25;146634;621;45017;-84
2023/04/25 12:36:12;;;;;;;;;1.33;1.33;;;;;24.74;31.46;100122.31;146633;633;45020;-85
2023/04/25 12:39:14;;;;;;;;;3.67;3.67;;;;;24.75;32.59;100134.66;146636;643;45013;-83
2023/04/25 12:42:24;;;;;;;;;1.00;1.00;;;;;24.75;36.03;100126.72;146635;589;45010;-83
2023/04/25 12:45:31;;;;;;;;;2.00;1.33;;;;;24.74;35.61;100121.44;146634;627;46012;-83
2023/04/25 12:48:27;;;;;;;;;1.67;1.67;;;;;24.68;33.38;100118.91;146638;569;45021;-82
2023/04/25 12:51:24;;;;;;;;;1.33;1.00;;;;;24.58;31.68;100110.19;146638;608;46941;-85
2023/04/25 12:54:19;;;;;;;;;1.00;1.00;;;;;24.48;31.74;100109.47;146638;590;45020;-85
2023/04/25 12:57:16;;;;;;;;;0.33;0.00;;;;;23.88;32.56;100020.25;146635;640;45012;-82
2023/04/25 13:00:31;;;;;;;;;1.00;1.00;;;;;24.26;34.41;100108.88;146637;566;45020;-88
2023/04/25 13:03:33;;;;;;;;;1.00;0.67;;;;;24.23;33.20;100098.31;146626;721;46016;-83
2023/04/25 13:06:31;;;;;;;;;1.00;1.00;;;;;24.21;33.58;100094.84;146634;591;45020;-88
2023/04/25 13:09:23;;;;;;;;;1.67;1.67;;;;;23.84;32.49;100026.50;146637;643;45016;-87
2023/04/25 13:12:17;;;;;;;;;1.00;1.00;;;;;24.32;31.49;100092.03;146635;626;45020;-88
2023/04/25 13:15:21;;;;;;;;;1.67;0.33;;;;;24.40;31.88;100096.31;146633;677;45919;-88
2023/04/25 13:18:13;;;;;;;;;5.33;4.00;;;;;24.60;32.82;100089.84;146635;626;45010;-86
2023/04/25 13:21:13;;;;;;;;;0.00;0.00;;;;;24.83;32.92;100085.03;146635;640;45919;-86
2023/04/25 13:24:07;;;;;;;;;3.00;2.67;;;;;24.94;35.06;100082.19;146634;572;45021;-85
2023/04/25 13:26:59;;;;;;;;;3.00;3.00;;;;;25.06;35.36;100083.75;146620;667;46012;-85
2023/04/25 13:29:57;;;;;;;;;2.67;2.67;;;;;25.09;33.34;100068.66;146620;574;46020;-81
2023/04/25 13:32:52;;;;;;;;;2.00;2.00;;;;;25.01;34.24;100059.94;146622;640;46012;-89
2023/04/25 13:35:55;;;;;;;;;2.33;2.33;;;;;24.92;34.30;100070.72;146618;636;47020;-86
2023/04/25 13:38:49;;;;;;;;;4.00;3.00;;;;;24.85;33.64;100064.66;146618;599;46017;-89
2023/04/25 13:42:06;;;;;;;;;5.00;3.00;;;;;24.76;33.33;100070.13;146617;624;46012;-92
2023/04/25 13:44:58;;;;;;;;;5.00;2.00;;;;;24.12;34.95;99981.09;146620;583;46017;-88
2023/04/25 13:47:51;;;;;;;;;1.67;1.33;;;;;24.48;34.43;100064.41;146621;583;46020;-86
2023/04/25 13:50:49;;;;;;;;;2.00;2.00;;;;;24.36;35.01;100065.47;146620;630;46014;-78
2023/04/25 13:53:58;;;;;;;;;;;;;;;;;;;;;
2023/04/25 13:56:55;;;;;;;;;2.00;2.00;;;;;24.14;34.02;100066.66;146621;640;47012;-81
2023/04/25 14:00:08;;;;;;;;;2.00;2.00;;;;;24.03;35.38;100066.84;146623;603;46010;-83
2023/04/25 14:03:09;;;;;;;;;3.00;3.00;;;;;23.96;35.01;100060.75;146620;597;46016;-82
2023/04/25 14:06:13;;;;;;;;;2.00;2.00;;;;;23.91;34.12;100056.41;146621;652;46010;-79
2023/04/25 14:09:31;;;;;;;;;3.33;2.00;;;;;23.87;35.98;100047.66;146620;603;46035;-82
2023/04/25 14:12:23;;;;;;;;;3.67;3.00;;;;;23.82;35.03;100049.47;146620;571;46012;-82
2023/04/25 14:15:27;;;;;;;;;3.00;2.00;;;;;23.77;34.40;100048.69;146622;641;46012;-82